Yellowstone Regional Airport
KCOD : now visible

Airfield :











YOU CAN JOIN US ON...

 
LOGIN :

Register | Disclaimer

   EN    FR    IT 

 









Legend :    VFR   Marginal VFR   IFR   Intensive IFR   Very Intensive IFR
Visi :
Ceiling :
>= 8 km
>= 3000ft
5 to 8 km
1000 to 3000 ft
1500m to 5 km
500 to 1000 ft
800 to 1500m
200 to 500 ft
< 800m
< 200 ft
Symbols :   Thunderstorms  Fog  Heavy snow  Heavy precipitations  Wind > 20 kt






- Airport Elevation : 5102 ft


KCOD - Yellowstone Regional

CURRENT METAR :
  • 100656Z AUTO VRB03KT 10SM CLR 05/M03 A2994 RMK AO2 SLP138 T00501028 401441050

EXPIRED METARs :
  • 100556Z AUTO 14003KT 10SM CLR 04/M04 A2996 RMK AO2 SLP148 T00391039 10139 20022 58007
  • 100456Z AUTO 18005KT 10SM CLR 04/M04 A2997 RMK AO2 SLP155 T00441044

TAF KCOD
Valid from the 10 at 06:00 until the 11 at 06:00 UTC


100521Z 1006/1106 23006KT P6SM SKC
FM100800 VRB05KT P6SM SKC
FM102000 29010KT P6SM SCT250
FM110200 34012G18KT P6SM BKN080



MET'MAP, your aeronautical weather chart ! - Copyright ORBIFLY December 2007 - Disclaimer

ORBIFLY MET'MAP TEAM :

Programming & Development : Alexandra Zaïnal
Concept & original design : Baudouin d'Aumeries
Assistance for programming : Marc-Olivier Méhu
Technical & hardware support : Manuel Goepfert

Contact : metmap@orbifly.com




SOURCES & CREDITS :

   NOAA       Earth
Advisory